Airfield :







YOU CAN JOIN US ON...

 
LOGIN :

Register | Disclaimer

   EN    FR    IT 

 









Legend :    VFR   Marginal VFR   IFR   Intensive IFR   Very Intensive IFR
Visi :
Ceiling :
>= 8 km
>= 3000ft
5 to 8 km
1000 to 3000 ft
1500m to 5 km
500 to 1000 ft
800 to 1500m
200 to 500 ft
< 800m
< 200 ft
Symbols :   Thunderstorms  Fog  Heavy snow  Heavy precipitations  Wind > 20 kt






- Airport Elevation : 72 ft
- IATA code : YDF


CYDF - Deer Lake

CURRENT METAR :
  • 140800Z 02002KT 10SM -SHSN OVC028 M08/M09 A3049 RMK SC8 CVCTV CLD EMBD SLP330

EXPIRED METARs :
  • 140700Z 33002KT 12SM -SHSN OVC036 M08/M09 A3052 RMK SC8 CVCTV CLD EMBD SLP338
  • 140600Z 00000KT 12SM -SHSN OVC040 M09/M10 A3054 RMK SC8 CVCTV CLD EMBD SLP344

TAF TAF CYDF
Valid from the 14 at 08:00 until the 14 at 20:00 UTC


140738Z 1408/1420 VRB03KT P6SM OVC040
TEMPO 1408/1417 5SM -SHSN
BECMG 1412/1414 22012KT
FM141700 20010G20KT P6SM FEW025 BKN240
BECMG 1418/1420 06008KT RMK NXT FCST BY 141400Z



MET'MAP, your aeronautical weather chart ! - Copyright ORBIFLY December 2007 - Disclaimer

ORBIFLY MET'MAP TEAM :

Programming & Development : Alexandra Zaïnal
Concept & original design : Baudouin d'Aumeries
Assistance for programming : Marc-Olivier Méhu
Technical & hardware support : Manuel Goepfert

Contact : metmap@orbifly.com




SOURCES & CREDITS :

   NOAA